Time;durP1;ratioP1;P1;durP2;ratioP2;P2;SDS_P1;SDS_P2;PMS_P1;PMS_P2;Temp;Humidity;BMP_temperature;BMP_pressure;BME280_temperature;BME280_humidity;BME280_pressure;Samples;Min_cycle;Max_cycle;Signal;HPM_P1;HPM_P2
2021/10/28 00:12:21;;;;;;;6.68;4.60;;;11.60;99.90;;;;;;2073118;28;20037;-72
2021/10/28 00:13:24;;;;;;;7.07;4.65;;;11.60;99.90;;;;;;2080256;28;20517;-72
2021/10/28 00:14:25;;;;;;;5.28;4.68;;;11.60;99.90;;;;;;2080252;28;20025;-72
2021/10/28 00:15:37;;;;;;;6.10;4.50;;;11.60;99.90;;;;;;2079895;28;20537;-72
2021/10/28 00:16:38;;;;;;;5.85;4.25;;;11.60;99.90;;;;;;2080667;28;20660;-72
2021/10/28 00:18:04;;;;;;;7.25;4.75;;;11.60;99.90;;;;;;2079997;28;20093;-72
2021/10/28 00:19:05;;;;;;;5.78;4.68;;;11.60;99.90;;;;;;2079908;28;20025;-72
2021/10/28 00:20:08;;;;;;;6.65;4.38;;;11.60;99.90;;;;;;2080234;28;20064;-72
2021/10/28 00:21:09;;;;;;;5.70;4.32;;;11.60;99.90;;;;;;2073486;28;20018;-72
2021/10/28 00:22:12;;;;;;;6.30;4.47;;;11.60;99.90;;;;;;2071770;28;20748;-72
2021/10/28 00:23:12;;;;;;;5.32;4.20;;;11.60;99.90;;;;;;2072140;28;20018;-72
2021/10/28 00:24:14;;;;;;;5.65;4.00;;;11.60;99.90;;;;;;2072017;28;20025;-72
2021/10/28 00:25:15;;;;;;;5.95;5.13;;;11.60;99.90;;;;;;2071955;28;20022;-72
2021/10/28 00:26:16;;;;;;;5.57;4.60;;;11.60;99.90;;;;;;2077378;28;20373;-72
2021/10/28 00:27:17;;;;;;;6.95;5.00;;;11.60;99.90;;;;;;2079997;28;20043;-72
2021/10/28 00:28:18;;;;;;;8.48;4.80;;;11.60;99.90;;;;;;2079553;28;20029;-72
2021/10/28 00:29:21;;;;;;;8.20;5.53;;;11.60;99.90;;;;;;2072620;28;20049;-72
2021/10/28 00:30:21;;;;;;;9.82;6.00;;;11.50;99.90;;;;;;2071738;28;20052;-72
2021/10/28 00:31:22;;;;;;;8.98;5.65;;;11.50;99.90;;;;;;2071959;28;20026;-72
2021/10/28 00:32:22;;;;;;;7.22;5.63;;;11.50;99.90;;;;;;2071942;28;20057;-72
2021/10/28 00:33:23;;;;;;;9.20;6.35;;;11.50;99.90;;;;;;2071769;28;20518;-72
2021/10/28 00:34:25;;;;;;;8.07;4.63;;;11.50;99.90;;;;;;2071847;28;20032;-72
2021/10/28 00:35:25;;;;;;;6.07;4.65;;;11.50;99.90;;;;;;2071676;28;20358;-72
2021/10/28 00:36:26;;;;;;;6.60;4.78;;;11.40;99.90;;;;;;2075084;28;20022;-72
2021/10/28 00:37:28;;;;;;;5.55;5.05;;;11.50;99.90;;;;;;2075118;28;20021;-72
2021/10/28 00:38:28;;;;;;;6.88;5.45;;;11.40;99.90;;;;;;2075996;28;20113;-72
2021/10/28 00:39:29;;;;;;;9.77;5.30;;;11.50;99.90;;;;;;2072070;28;20462;-72
2021/10/28 00:40:29;;;;;;;6.28;5.05;;;11.40;99.90;;;;;;2075589;28;20025;-72
2021/10/28 00:41:30;;;;;;;7.63;5.85;;;11.40;99.90;;;;;;2078259;28;20525;-72
2021/10/28 00:42:31;;;;;;;7.43;6.38;;;11.40;99.90;;;;;;2071963;28;20030;-72
2021/10/28 00:43:33;;;;;;;10.02;6.68;;;11.40;99.90;;;;;;2076574;28;20040;-72
2021/10/28 00:44:34;;;;;;;9.40;7.30;;;11.40;99.90;;;;;;2079902;28;20025;-72
2021/10/28 00:45:40;;;;;;;7.25;6.13;;;11.40;99.90;;;;;;2072006;28;20113;-72
2021/10/28 00:46:40;;;;;;;7.53;6.20;;;11.40;99.90;;;;;;2071692;28;20049;-72
2021/10/28 00:47:42;;;;;;;9.30;7.85;;;11.40;99.90;;;;;;2072169;28;20065;-72
2021/10/28 00:48:45;;;;;;;9.45;6.95;;;11.40;99.90;;;;;;2071361;28;20472;-72
2021/10/28 00:49:46;;;;;;;7.28;6.22;;;11.40;99.90;;;;;;2071888;28;20123;-72
2021/10/28 00:50:51;;;;;;;6.72;5.00;;;11.40;99.90;;;;;;2071659;28;20080;-72
2021/10/28 00:51:52;;;;;;;7.28;6.28;;;11.40;99.90;;;;;;2072249;28;20095;-72
2021/10/28 00:52:52;;;;;;;9.93;7.07;;;11.40;99.90;;;;;;2071181;28;20088;-72
2021/10/28 00:53:54;;;;;;;9.02;6.78;;;11.40;99.90;;;;;;2071118;28;20077;-72
2021/10/28 00:54:55;;;;;;;7.13;6.38;;;11.40;99.90;;;;;;2072034;28;20076;-72
2021/10/28 00:55:55;;;;;;;9.95;7.38;;;11.40;99.90;;;;;;2076545;28;20043;-72
2021/10/28 00:56:56;;;;;;;9.80;7.60;;;11.40;99.90;;;;;;2079466;28;20055;-72
2021/10/28 00:57:57;;;;;;;8.95;7.55;;;11.40;99.90;;;;;;2075953;28;20018;-72
2021/10/28 00:58:58;;;;;;;11.20;8.38;;;11.40;99.90;;;;;;2072292;28;20037;-72
2021/10/28 00:59:59;;;;;;;11.07;8.18;;;11.30;99.90;;;;;;2080280;28;20044;-72
2021/10/28 01:01:01;;;;;;;12.45;9.05;;;11.30;99.90;;;;;;2078405;28;20018;-72
2021/10/28 01:02:03;;;;;;;11.52;8.55;;;11.30;99.90;;;;;;2070884;28;20125;-72
2021/10/28 01:03:03;;;;;;;9.77;8.27;;;11.30;99.90;;;;;;2070995;28;20065;-72
2021/10/28 01:04:04;;;;;;;9.90;7.90;;;11.30;99.90;;;;;;2071674;28;20446;-72
2021/10/28 01:05:05;;;;;;;10.02;7.85;;;11.30;99.90;;;;;;2071724;28;20477;-72
2021/10/28 01:06:08;;;;;;;9.75;8.38;;;11.30;99.90;;;;;;2071547;28;20421;-72
2021/10/28 01:07:09;;;;;;;11.07;8.02;;;11.30;99.90;;;;;;2071840;28;20057;-72
2021/10/28 01:08:10;;;;;;;10.52;8.25;;;11.20;99.90;;;;;;2071052;28;20033;-72
2021/10/28 01:09:10;;;;;;;12.48;8.18;;;11.30;99.90;;;;;;2075160;28;20022;-72
2021/10/28 01:10:11;;;;;;;11.40;7.70;;;11.20;99.90;;;;;;2079835;28;20029;-73
2021/10/28 01:11:14;;;;;;;9.98;7.82;;;11.30;99.90;;;;;;2074425;28;20036;-72
2021/10/28 01:12:14;;;;;;;9.85;8.30;;;11.30;99.90;;;;;;2071578;28;20052;-72
2021/10/28 01:13:17;;;;;;;11.73;8.90;;;11.30;99.90;;;;;;2071682;28;20117;-72
2021/10/28 01:14:18;;;;;;;8.90;7.97;;;11.20;99.90;;;;;;2071795;28;20034;-72
2021/10/28 01:15:18;;;;;;;15.05;8.55;;;11.20;99.90;;;;;;2071905;28;20037;-72
2021/10/28 01:16:22;;;;;;;12.50;8.55;;;11.20;99.90;;;;;;2071685;28;20028;-72
2021/10/28 01:17:23;;;;;;;12.35;8.90;;;11.20;99.90;;;;;;2071615;28;20112;-72
2021/10/28 01:18:24;;;;;;;10.63;8.63;;;11.20;99.90;;;;;;2070779;28;20026;-72
2021/10/28 01:19:25;;;;;;;10.85;9.18;;;11.20;99.90;;;;;;2077281;28;20056;-73
2021/10/28 01:20:25;;;;;;;14.73;9.48;;;11.20;99.90;;;;;;2077727;28;20095;-73
2021/10/28 01:21:26;;;;;;;12.45;8.95;;;11.30;99.90;;;;;;2070987;28;20022;-72
2021/10/28 01:22:26;;;;;;;12.35;9.95;;;11.20;99.90;;;;;;2071362;28;20046;-72
2021/10/28 01:23:27;;;;;;;11.23;9.38;;;11.20;99.90;;;;;;2071972;28;20033;-73
2021/10/28 01:24:28;;;;;;;11.60;9.13;;;11.20;99.90;;;;;;2079429;28;20504;-72
2021/10/28 01:25:29;;;;;;;10.82;8.68;;;11.30;99.90;;;;;;2075166;28;20025;-72
2021/10/28 01:26:29;;;;;;;12.82;9.23;;;11.30;99.90;;;;;;2078666;28;20141;-72
2021/10/28 01:27:30;;;;;;;13.30;9.10;;;11.30;99.90;;;;;;2079235;28;20025;-72
2021/10/28 01:28:33;;;;;;;11.10;9.20;;;11.30;99.90;;;;;;2080935;28;20021;-72
2021/10/28 01:29:35;;;;;;;11.98;9.68;;;11.30;99.90;;;;;;2071378;28;20056;-72
2021/10/28 01:30:36;;;;;;;12.35;9.18;;;11.20;99.90;;;;;;2073854;28;20497;-72
2021/10/28 01:31:36;;;;;;;12.23;9.73;;;11.30;99.90;;;;;;2071697;28;20391;-73
2021/10/28 01:32:37;;;;;;;15.13;9.85;;;11.30;99.90;;;;;;2071458;28;20018;-72
2021/10/28 01:33:40;;;;;;;11.15;9.77;;;11.30;99.90;;;;;;2071566;28;20490;-72
2021/10/28 01:34:44;;;;;;;14.15;9.85;;;11.30;99.90;;;;;;2077252;28;20104;-72
2021/10/28 01:35:45;;;;;;;12.45;10.05;;;11.30;99.90;;;;;;2072572;28;20030;-72
2021/10/28 01:36:46;;;;;;;11.80;9.55;;;11.30;99.90;;;;;;2075390;28;20021;-72
2021/10/28 01:37:47;;;;;;;15.85;11.10;;;11.30;99.90;;;;;;2077571;28;20319;-72
2021/10/28 01:38:48;;;;;;;13.38;8.98;;;11.30;99.90;;;;;;2073139;28;20030;-72
2021/10/28 01:39:49;;;;;;;12.68;9.95;;;11.30;99.90;;;;;;2071518;28;20013;-72
2021/10/28 01:40:55;;;;;;;14.65;9.60;;;11.30;99.90;;;;;;2071533;28;20067;-72
2021/10/28 01:41:56;;;;;;;11.95;9.27;;;11.30;99.90;;;;;;2071745;28;20585;-72
2021/10/28 01:42:57;;;;;;;11.98;10.40;;;11.30;99.90;;;;;;2074080;28;20044;-72
2021/10/28 01:43:57;;;;;;;10.82;9.73;;;11.30;99.90;;;;;;2071598;28;20446;-72
2021/10/28 01:44:59;;;;;;;9.10;8.20;;;11.30;99.90;;;;;;2070583;28;20060;-72
2021/10/28 01:46:00;;;;;;;13.45;10.40;;;11.30;99.90;;;;;;2070825;28;20097;-73
2021/10/28 01:47:01;;;;;;;10.75;9.00;;;11.30;99.90;;;;;;2070859;28;20021;-72
2021/10/28 01:48:04;;;;;;;10.63;8.93;;;11.30;99.90;;;;;;2071980;28;20030;-72
2021/10/28 01:49:04;;;;;;;10.95;8.23;;;11.30;99.90;;;;;;2070503;28;20526;-72
2021/10/28 01:50:06;;;;;;;11.68;8.82;;;11.30;99.90;;;;;;2071414;28;20400;-72
2021/10/28 01:51:08;;;;;;;11.02;9.50;;;11.30;99.90;;;;;;2071132;28;20040;-72
2021/10/28 01:52:12;;;;;;;11.43;8.77;;;11.30;99.90;;;;;;2072666;28;20026;-72
2021/10/28 01:53:13;;;;;;;12.95;8.52;;;11.30;99.90;;;;;;2071001;28;20125;-72
2021/10/28 01:54:14;;;;;;;10.57;8.23;;;11.30;99.90;;;;;;2079106;28;20026;-72
2021/10/28 01:55:15;;;;;;;11.13;8.60;;;11.30;99.90;;;;;;2078659;28;20028;-72
2021/10/28 01:56:16;;;;;;;9.18;7.90;;;11.30;99.90;;;;;;2078964;28;20036;-72
2021/10/28 01:57:19;;;;;;;8.93;7.25;;;11.30;99.90;;;;;;2079451;28;20100;-73
2021/10/28 01:58:22;;;;;;;10.05;8.98;;;11.30;99.90;;;;;;2073932;28;20482;-72
2021/10/28 01:59:23;;;;;;;11.68;9.57;;;11.30;99.90;;;;;;2076068;28;20163;-72
2021/10/28 02:00:23;;;;;;;12.38;9.35;;;11.30;99.90;;;;;;2079537;28;20466;-72
2021/10/28 02:01:24;;;;;;;14.43;9.38;;;11.30;99.90;;;;;;2076886;28;20018;-72
2021/10/28 02:02:25;;;;;;;12.35;8.90;;;11.20;99.90;;;;;;2072996;28;20514;-72
2021/10/28 02:03:26;;;;;;;11.65;9.43;;;11.20;99.90;;;;;;2073643;28;20033;-72
2021/10/28 02:04:26;;;;;;;11.48;9.27;;;11.20;99.90;;;;;;2078821;28;20021;-72
2021/10/28 02:05:27;;;;;;;13.73;9.90;;;11.20;99.90;;;;;;2079890;28;20026;-72
2021/10/28 02:06:28;;;;;;;10.18;7.60;;;11.20;99.90;;;;;;2075105;28;20099;-72
2021/10/28 02:07:30;;;;;;;10.77;9.07;;;11.20;99.90;;;;;;2079257;28;20029;-72
2021/10/28 02:08:30;;;;;;;12.05;8.77;;;11.20;99.90;;;;;;2080416;28;20021;-72
2021/10/28 02:09:32;;;;;;;11.45;9.65;;;11.20;99.90;;;;;;2077134;28;20073;-72
2021/10/28 02:10:33;;;;;;;8.48;7.55;;;11.20;99.90;;;;;;2072912;28;20018;-72
2021/10/28 02:11:33;;;;;;;11.68;8.85;;;11.20;99.90;;;;;;2072419;28;20030;-72
2021/10/28 02:12:35;;;;;;;10.70;9.43;;;11.20;99.90;;;;;;2072787;28;20077;-72
2021/10/28 02:13:36;;;;;;;10.57;7.25;;;11.20;99.90;;;;;;2074425;28;20033;-72
2021/10/28 02:14:36;;;;;;;8.60;7.25;;;11.20;99.90;;;;;;2074288;28;20018;-72
2021/10/28 02:15:37;;;;;;;10.88;8.57;;;11.20;99.90;;;;;;2074350;28;20029;-72
2021/10/28 02:16:38;;;;;;;10.65;8.63;;;11.20;99.90;;;;;;2074163;28;20065;-72
2021/10/28 02:17:39;;;;;;;10.07;9.05;;;11.20;99.90;;;;;;2078274;28;20120;-72
2021/10/28 02:18:40;;;;;;;12.00;8.15;;;11.20;99.90;;;;;;2074246;28;20097;-72
2021/10/28 02:19:40;;;;;;;10.35;8.48;;;11.10;99.90;;;;;;2081472;28;20478;-72
2021/10/28 02:20:41;;;;;;;11.73;9.93;;;11.10;99.90;;;;;;2079113;28;20088;-72
2021/10/28 02:21:42;;;;;;;12.77;10.13;;;11.10;99.90;;;;;;2075275;28;20022;-72
2021/10/28 02:22:44;;;;;;;12.05;9.48;;;11.10;99.90;;;;;;2078555;28;20029;-72
2021/10/28 02:23:44;;;;;;;13.73;10.32;;;11.10;99.90;;;;;;2075720;28;20034;-72
2021/10/28 02:24:45;;;;;;;14.27;10.30;;;11.10;99.90;;;;;;2074482;28;20028;-72
2021/10/28 02:25:46;;;;;;;13.45;10.55;;;11.10;99.90;;;;;;2080495;28;20389;-72
2021/10/28 02:26:46;;;;;;;12.43;10.55;;;11.10;99.90;;;;;;2082381;28;20113;-72
2021/10/28 02:27:48;;;;;;;12.23;9.90;;;11.10;99.90;;;;;;2082328;28;20113;-72
2021/10/28 02:28:49;;;;;;;10.75;9.43;;;11.10;99.90;;;;;;2078521;28;20022;-72
2021/10/28 02:29:49;;;;;;;13.55;10.75;;;11.10;99.90;;;;;;2074407;28;20025;-72
2021/10/28 02:30:50;;;;;;;13.80;11.35;;;11.10;99.90;;;;;;2074055;28;20038;-72
2021/10/28 02:31:50;;;;;;;13.02;11.73;;;11.10;99.90;;;;;;2079461;28;20529;-72
2021/10/28 02:32:52;;;;;;;15.38;11.60;;;11.10;99.90;;;;;;2082330;28;20024;-72
2021/10/28 02:33:52;;;;;;;14.00;11.27;;;11.10;99.90;;;;;;2078034;28;20394;-72
2021/10/28 02:34:53;;;;;;;14.38;10.85;;;11.10;99.90;;;;;;2081706;28;20083;-73
2021/10/28 02:35:53;;;;;;;14.23;11.68;;;11.10;99.90;;;;;;2074208;28;20478;-72
2021/10/28 02:36:54;;;;;;;11.88;10.55;;;11.10;99.90;;;;;;2078270;28;20022;-72
2021/10/28 02:37:55;;;;;;;13.40;11.07;;;11.10;99.90;;;;;;2082185;28;20025;-72
2021/10/28 02:38:55;;;;;;;14.68;11.32;;;11.10;99.90;;;;;;2074703;28;20029;-72
2021/10/28 02:39:56;;;;;;;15.02;10.77;;;11.10;99.90;;;;;;2082011;28;20049;-72
2021/10/28 02:40:56;;;;;;;12.73;10.48;;;11.10;99.90;;;;;;2082309;28;20097;-72
2021/10/28 02:41:57;;;;;;;14.68;11.15;;;11.10;99.90;;;;;;2077699;28;20022;-72
2021/10/28 02:42:58;;;;;;;13.35;10.90;;;11.10;99.90;;;;;;2073657;28;20021;-72
2021/10/28 02:43:58;;;;;;;12.20;10.18;;;11.10;99.90;;;;;;2073703;28;20044;-72
2021/10/28 02:44:59;;;;;;;12.40;11.15;;;11.10;99.90;;;;;;2074125;28;20069;-72
2021/10/28 02:45:59;;;;;;;11.30;9.85;;;11.10;99.90;;;;;;2080072;28;20033;-72
2021/10/28 02:47:00;;;;;;;13.60;10.57;;;11.10;99.90;;;;;;2075993;28;20482;-72
2021/10/28 02:48:00;;;;;;;14.13;10.85;;;11.10;99.90;;;;;;2075130;28;20038;-72
2021/10/28 02:49:01;;;;;;;12.68;10.55;;;11.10;99.90;;;;;;2073420;28;20394;-72
2021/10/28 02:50:03;;;;;;;12.20;10.23;;;11.10;99.90;;;;;;2073977;28;20017;-72
2021/10/28 02:51:04;;;;;;;12.45;11.13;;;11.10;99.90;;;;;;2074221;28;20030;-72
2021/10/28 02:52:05;;;;;;;11.70;9.98;;;11.10;99.90;;;;;;2074173;28;20149;-72
2021/10/28 02:53:06;;;;;;;12.18;10.88;;;11.10;99.90;;;;;;2074012;28;20029;-72
2021/10/28 02:54:07;;;;;;;15.18;10.95;;;11.10;99.90;;;;;;2075981;28;20026;-72
2021/10/28 02:55:08;;;;;;;13.15;10.85;;;11.10;99.90;;;;;;2075847;28;20049;-72
2021/10/28 02:56:08;;;;;;;13.77;10.77;;;11.10;99.90;;;;;;2074173;28;20017;-72
2021/10/28 02:57:09;;;;;;;12.48;10.88;;;11.10;99.90;;;;;;2073980;28;20030;-72
2021/10/28 02:58:09;;;;;;;14.20;11.32;;;11.10;99.90;;;;;;2072806;28;20113;-72
2021/10/28 02:59:10;;;;;;;12.15;10.95;;;11.10;99.90;;;;;;2076691;28;20040;-72
2021/10/28 03:00:12;;;;;;;14.05;12.30;;;11.10;99.90;;;;;;2081689;28;20078;-72
2021/10/28 03:01:13;;;;;;;14.45;11.95;;;11.00;99.90;;;;;;2082165;28;20021;-72
2021/10/28 03:02:14;;;;;;;14.48;11.63;;;11.10;99.90;;;;;;2081057;28;20026;-71
2021/10/28 03:03:14;;;;;;;16.75;12.80;;;11.10;99.90;;;;;;2075109;28;20466;-72
2021/10/28 03:04:17;;;;;;;15.60;12.25;;;11.10;99.90;;;;;;2072888;28;20040;-72
2021/10/28 03:05:18;;;;;;;13.70;11.95;;;11.10;99.90;;;;;;2073160;28;20097;-72
2021/10/28 03:06:18;;;;;;;14.75;12.23;;;11.10;99.90;;;;;;2072863;28;20033;-72
2021/10/28 03:07:19;;;;;;;13.63;11.57;;;11.10;99.90;;;;;;2073146;28;20041;-72
2021/10/28 03:08:20;;;;;;;13.55;11.93;;;11.10;99.90;;;;;;2077712;28;20033;-72
2021/10/28 03:09:23;;;;;;;13.20;11.52;;;11.10;99.90;;;;;;2081423;28;20654;-72
2021/10/28 03:10:23;;;;;;;13.27;11.82;;;11.10;99.90;;;;;;2081052;28;20029;-72
2021/10/28 03:11:24;;;;;;;13.85;11.55;;;11.10;99.90;;;;;;2077082;28;20533;-72
2021/10/28 03:12:25;;;;;;;12.80;11.45;;;11.20;99.90;;;;;;2079040;28;20390;-72
2021/10/28 03:13:25;;;;;;;22.20;12.80;;;11.10;99.90;;;;;;2073057;28;20189;-72
2021/10/28 03:14:51;;;;;;;12.90;11.52;;;11.20;99.90;;;;;;2073454;28;20017;-72
2021/10/28 03:15:52;;;;;;;11.93;10.65;;;11.20;99.90;;;;;;2072232;28;20414;-73
2021/10/28 03:17:03;;;;;;;14.40;11.65;;;11.10;99.90;;;;;;2072725;28;20486;-72
2021/10/28 03:19:44;;;;;;;13.70;11.25;;;11.10;99.90;;;;;;2076947;28;20028;-73
2021/10/28 03:25:59;;;;;;;16.05;11.68;;;11.00;99.90;;;;;;2077038;28;20029;-72
2021/10/28 03:27:01;;;;;;;13.40;11.30;;;11.00;99.90;;;;;;2079267;28;20037;-72
2021/10/28 03:28:02;;;;;;;16.20;12.48;;;11.00;99.90;;;;;;2072749;28;20101;-73
2021/10/28 03:29:03;;;;;;;19.17;13.32;;;11.00;99.90;;;;;;2074467;28;20064;-72
2021/10/28 03:30:05;;;;;;;13.35;11.98;;;11.00;99.90;;;;;;2071922;28;20034;-72
2021/10/28 03:31:06;;;;;;;16.73;12.65;;;11.10;99.90;;;;;;2072502;28;20519;-72
2021/10/28 03:32:07;;;;;;;14.07;11.88;;;11.10;99.90;;;;;;2072476;28;20417;-72
2021/10/28 03:33:10;;;;;;;14.25;12.02;;;11.10;99.90;;;;;;2072647;28;20034;-72
2021/10/28 03:34:11;;;;;;;15.73;11.88;;;11.10;99.90;;;;;;2074992;28;20034;-72
2021/10/28 03:35:14;;;;;;;14.40;12.02;;;11.10;99.90;;;;;;2080020;28;20056;-72
2021/10/28 03:36:26;;;;;;;14.60;12.32;;;11.10;99.90;;;;;;2077357;28;20376;-72
2021/10/28 03:37:31;;;;;;;16.13;12.25;;;11.10;99.90;;;;;;2076337;28;20026;-72
2021/10/28 03:38:45;;;;;;;16.45;12.68;;;11.00;99.90;;;;;;2076880;28;20405;-72
2021/10/28 03:47:19;;;;;;;15.60;12.73;;;11.00;99.90;;;;;;2075012;28;20117;-72
2021/10/28 03:53:02;;;;;;;16.02;13.30;;;11.00;99.90;;;;;;2071390;28;20030;-72
2021/10/28 04:05:12;;;;;;;16.92;14.73;;;11.00;99.90;;;;;;2077917;28;20026;-72
2021/10/28 04:20:36;;;;;;;18.02;14.32;;;11.10;99.90;;;;;;2080564;28;20477;-72
2021/10/28 04:29:12;;;;;;;17.17;14.38;;;11.10;99.90;;;;;;2072214;28;20048;-72
2021/10/28 04:30:13;;;;;;;17.40;14.35;;;11.10;99.90;;;;;;2073327;28;20084;-72
2021/10/28 04:31:14;;;;;;;20.88;15.20;;;11.10;99.90;;;;;;2080236;28;20063;-72
2021/10/28 04:32:14;;;;;;;18.30;14.43;;;11.10;99.90;;;;;;2080113;28;20044;-72
2021/10/28 04:33:16;;;;;;;16.58;14.02;;;11.10;99.90;;;;;;2076450;28;20062;-72
2021/10/28 04:34:16;;;;;;;15.63;13.73;;;11.10;99.90;;;;;;2075092;28;20021;-72
2021/10/28 04:35:18;;;;;;;19.35;15.20;;;11.20;99.90;;;;;;2076308;28;20030;-72
2021/10/28 04:36:19;;;;;;;19.02;15.32;;;11.20;99.90;;;;;;2073270;28;20481;-72
2021/10/28 04:37:20;;;;;;;16.55;14.05;;;11.20;99.90;;;;;;2076617;28;20038;-72
2021/10/28 04:38:21;;;;;;;19.52;14.98;;;11.20;99.90;;;;;;2078575;28;21929;-72
2021/10/28 04:39:22;;;;;;;22.55;15.52;;;11.20;99.90;;;;;;2071643;28;20021;-72
2021/10/28 04:40:22;;;;;;;17.48;14.40;;;11.20;99.90;;;;;;2071342;28;20437;-72
2021/10/28 04:41:23;;;;;;;19.52;14.25;;;11.20;99.90;;;;;;2071270;28;20046;-72
2021/10/28 04:42:23;;;;;;;17.55;14.15;;;11.20;99.90;;;;;;2072240;28;20018;-72
2021/10/28 04:43:24;;;;;;;13.48;11.73;;;11.20;99.90;;;;;;2071583;28;20034;-72
2021/10/28 04:44:25;;;;;;;18.33;15.63;;;11.20;99.90;;;;;;2072286;28;20022;-72
2021/10/28 04:45:25;;;;;;;20.23;16.05;;;11.10;99.90;;;;;;2074697;28;20036;-72
2021/10/28 04:46:26;;;;;;;17.08;13.73;;;11.10;99.90;;;;;;2079019;28;20544;-72
2021/10/28 04:47:27;;;;;;;17.08;13.35;;;11.10;99.90;;;;;;2076391;28;20031;-72
2021/10/28 04:48:27;;;;;;;17.80;14.02;;;11.10;99.90;;;;;;2078093;28;20075;-72
2021/10/28 04:49:28;;;;;;;17.33;12.98;;;11.20;99.90;;;;;;2079959;28;20022;-72
2021/10/28 04:50:28;;;;;;;18.40;13.52;;;11.10;99.90;;;;;;2079190;28;20014;-72
2021/10/28 04:51:29;;;;;;;17.83;13.40;;;11.10;99.90;;;;;;2079559;28;20040;-72
2021/10/28 04:52:30;;;;;;;16.65;13.52;;;11.10;99.90;;;;;;2080224;28;20108;-72
2021/10/28 04:53:30;;;;;;;17.73;13.60;;;11.10;99.90;;;;;;2073876;28;20030;-72
2021/10/28 04:54:31;;;;;;;14.23;11.95;;;11.10;99.90;;;;;;2071640;28;20021;-72
2021/10/28 04:55:32;;;;;;;12.50;10.25;;;11.10;99.90;;;;;;2072115;28;20053;-72
2021/10/28 04:56:32;;;;;;;12.57;10.65;;;11.10;99.90;;;;;;2071822;28;20034;-72
2021/10/28 04:57:34;;;;;;;11.50;9.30;;;11.10;99.90;;;;;;2071344;28;20447;-72
2021/10/28 04:58:35;;;;;;;13.25;11.85;;;11.10;99.90;;;;;;2070503;28;20018;-72
2021/10/28 04:59:35;;;;;;;14.65;12.50;;;11.10;99.90;;;;;;2078666;28;20479;-72
2021/10/28 05:00:36;;;;;;;12.35;10.15;;;11.10;99.90;;;;;;2079534;28;20026;-72
2021/10/28 05:01:37;;;;;;;12.20;10.52;;;11.00;99.90;;;;;;2073836;28;20475;-72
2021/10/28 05:02:38;;;;;;;13.35;10.63;;;11.10;99.90;;;;;;2070677;28;20065;-72
2021/10/28 05:03:38;;;;;;;13.88;12.43;;;11.00;99.90;;;;;;2072090;28;20462;-73
2021/10/28 05:04:39;;;;;;;12.48;11.07;;;11.00;99.90;;;;;;2076405;28;20498;-72
2021/10/28 05:05:39;;;;;;;15.90;11.10;;;11.00;99.90;;;;;;2071764;28;20026;-72
2021/10/28 05:06:41;;;;;;;17.77;10.70;;;11.00;99.90;;;;;;2070786;28;20026;-72
2021/10/28 05:07:42;;;;;;;14.02;11.75;;;11.00;99.90;;;;;;2071266;28;20014;-72
2021/10/28 05:08:42;;;;;;;14.32;12.73;;;10.90;99.90;;;;;;2071265;28;20025;-72
2021/10/28 05:09:43;;;;;;;13.90;12.38;;;10.90;99.90;;;;;;2071902;28;20451;-72
2021/10/28 05:10:45;;;;;;;14.05;12.13;;;10.90;99.90;;;;;;2071900;28;20018;-73
2021/10/28 05:11:46;;;;;;;15.80;12.85;;;10.90;99.90;;;;;;2072059;28;20026;-72
2021/10/28 05:12:46;;;;;;;15.57;13.05;;;10.90;99.90;;;;;;2071281;28;20018;-72
2021/10/28 05:13:47;;;;;;;12.88;11.02;;;10.90;99.90;;;;;;2071630;28;20040;-72
2021/10/28 05:14:48;;;;;;;15.50;10.85;;;10.80;99.90;;;;;;2071698;28;20068;-72
2021/10/28 05:15:50;;;;;;;14.02;12.52;;;10.80;99.90;;;;;;2071914;28;20018;-72
2021/10/28 05:16:55;;;;;;;16.08;13.30;;;10.80;99.90;;;;;;2071613;28;20061;-72
2021/10/28 05:17:56;;;;;;;10.80;9.15;;;10.80;99.90;;;;;;2071786;28;20018;-72
2021/10/28 05:18:57;;;;;;;13.18;11.88;;;10.80;99.90;;;;;;2072941;28;20022;-72
2021/10/28 05:19:58;;;;;;;14.52;12.85;;;10.80;99.90;;;;;;2080111;28;20052;-72
2021/10/28 05:20:58;;;;;;;16.48;12.55;;;10.70;99.90;;;;;;2074359;28;20037;-72
2021/10/28 05:21:59;;;;;;;14.48;12.52;;;10.70;99.90;;;;;;2071742;28;20060;-72
2021/10/28 05:22:59;;;;;;;12.60;10.90;;;10.70;99.90;;;;;;2071710;28;20037;-72
2021/10/28 05:24:00;;;;;;;11.82;10.60;;;10.70;99.90;;;;;;2074799;28;20099;-72
2021/10/28 05:25:00;;;;;;;12.30;10.75;;;10.70;99.90;;;;;;2079988;28;20121;-72
2021/10/28 05:26:01;;;;;;;15.10;13.07;;;10.70;99.90;;;;;;2079946;28;20037;-72
2021/10/28 05:27:01;;;;;;;13.85;10.95;;;10.70;99.90;;;;;;2078432;28;20061;-72
2021/10/28 05:28:02;;;;;;;14.63;12.07;;;10.60;99.90;;;;;;2071914;28;20036;-72
2021/10/28 05:29:03;;;;;;;15.77;13.13;;;10.60;99.90;;;;;;2071136;28;20032;-72
2021/10/28 05:30:04;;;;;;;14.65;12.80;;;10.60;99.90;;;;;;2073691;28;20371;-72
2021/10/28 05:31:05;;;;;;;11.50;9.88;;;10.50;99.90;;;;;;2071727;28;20030;-72
2021/10/28 05:32:06;;;;;;;16.80;13.10;;;10.60;99.90;;;;;;2071733;28;20049;-72
2021/10/28 05:33:07;;;;;;;16.65;13.90;;;10.60;99.90;;;;;;2071667;28;20026;-72
2021/10/28 05:34:08;;;;;;;14.30;11.57;;;10.50;99.90;;;;;;2073307;28;20029;-72
2021/10/28 05:35:08;;;;;;;14.93;12.65;;;10.50;99.90;;;;;;2078461;28;20021;-72
2021/10/28 05:36:09;;;;;;;15.43;12.43;;;10.50;99.90;;;;;;2075218;28;20389;-72
2021/10/28 05:37:10;;;;;;;17.63;13.68;;;10.50;99.90;;;;;;2075540;28;20481;-72
2021/10/28 05:38:10;;;;;;;14.07;12.20;;;10.40;99.90;;;;;;2078522;28;20124;-72
2021/10/28 05:39:11;;;;;;;17.33;12.98;;;10.40;99.90;;;;;;2071101;28;20078;-72
2021/10/28 05:40:12;;;;;;;14.43;12.32;;;10.40;99.90;;;;;;2071661;28;20083;-72
2021/10/28 05:41:13;;;;;;;15.95;13.57;;;10.40;99.90;;;;;;2071703;28;20034;-72
2021/10/28 05:42:14;;;;;;;16.17;12.98;;;10.40;99.90;;;;;;2071479;28;20053;-72
2021/10/28 05:43:14;;;;;;;13.68;11.30;;;10.40;99.90;;;;;;2072921;28;20364;-72
2021/10/28 05:44:16;;;;;;;12.57;10.75;;;10.40;99.90;;;;;;2079682;28;20040;-72
2021/10/28 05:45:17;;;;;;;13.95;11.60;;;10.30;99.90;;;;;;2076797;28;20116;-72
2021/10/28 05:46:17;;;;;;;12.88;11.55;;;10.30;99.90;;;;;;2079830;28;20124;-72
2021/10/28 05:47:18;;;;;;;11.77;9.90;;;10.30;99.90;;;;;;2071672;28;20025;-72
2021/10/28 05:48:18;;;;;;;17.83;13.05;;;10.30;99.90;;;;;;2072486;28;20025;-72
2021/10/28 05:49:19;;;;;;;14.50;11.00;;;10.30;99.90;;;;;;2071632;28;20026;-72
2021/10/28 05:50:21;;;;;;;16.17;13.15;;;10.20;99.90;;;;;;2071164;28;20089;-72
2021/10/28 05:51:22;;;;;;;12.48;11.00;;;10.20;99.90;;;;;;2070712;28;20026;-72
2021/10/28 05:52:23;;;;;;;15.20;12.15;;;10.20;99.90;;;;;;2070576;28;20053;-72
2021/10/28 05:53:24;;;;;;;15.45;13.25;;;10.20;99.90;;;;;;2071391;28;20026;-72
2021/10/28 05:54:25;;;;;;;15.02;11.43;;;10.20;99.90;;;;;;2071410;28;20470;-73
2021/10/28 05:55:26;;;;;;;15.15;12.40;;;10.20;99.90;;;;;;2071487;28;20014;-72
2021/10/28 05:56:27;;;;;;;15.13;12.00;;;10.10;99.90;;;;;;2071273;28;20102;-72
2021/10/28 05:57:28;;;;;;;18.10;12.40;;;10.10;99.90;;;;;;2072731;28;20034;-72
2021/10/28 05:58:28;;;;;;;14.55;11.80;;;10.10;99.90;;;;;;2070050;28;20053;-72
2021/10/28 05:59:29;;;;;;;13.30;11.65;;;10.10;99.90;;;;;;2076835;28;20060;-72
2021/10/28 06:00:30;;;;;;;13.75;12.07;;;10.00;99.90;;;;;;2078887;28;20362;-72
2021/10/28 06:01:31;;;;;;;19.05;13.75;;;10.00;99.90;;;;;;2075124;28;20057;-72
2021/10/28 06:02:31;;;;;;;14.18;10.95;;;10.00;99.90;;;;;;2071686;28;20030;-72
2021/10/28 06:03:32;;;;;;;15.23;11.95;;;10.00;99.90;;;;;;2071182;28;20026;-72
2021/10/28 06:04:33;;;;;;;11.68;10.38;;;10.00;99.90;;;;;;2071558;28;20048;-72
2021/10/28 06:05:34;;;;;;;13.98;11.65;;;10.00;99.90;;;;;;2071570;28;20018;-72
2021/10/28 06:06:34;;;;;;;12.88;10.93;;;10.00;99.90;;;;;;2071517;28;20032;-75
2021/10/28 06:07:35;;;;;;;13.77;12.02;;;9.90;99.90;;;;;;2071282;28;20096;-72
2021/10/28 06:08:36;;;;;;;11.63;10.43;;;9.90;99.90;;;;;;2070936;28;20018;-72
2021/10/28 06:09:36;;;;;;;12.38;10.93;;;10.00;99.90;;;;;;2073729;28;20044;-72
2021/10/28 06:10:37;;;;;;;16.38;12.85;;;9.90;99.90;;;;;;2075686;28;20038;-72
2021/10/28 06:11:38;;;;;;;17.50;14.50;;;9.90;99.90;;;;;;2076321;28;20031;-72
2021/10/28 06:12:44;;;;;;;16.35;12.93;;;9.90;99.90;;;;;;2077140;28;20050;-72
2021/10/28 06:13:48;;;;;;;13.80;12.15;;;9.90;99.90;;;;;;2077529;28;20084;-72
2021/10/28 06:14:48;;;;;;;13.25;11.35;;;9.80;99.90;;;;;;2076196;28;20053;-72
2021/10/28 06:15:49;;;;;;;17.35;13.05;;;9.80;99.90;;;;;;2075466;28;20018;-71
2021/10/28 06:16:58;;;;;;;14.07;12.38;;;9.80;99.90;;;;;;2078177;28;20473;-71
2021/10/28 06:18:23;;;;;;;26.13;13.80;;;9.80;99.90;;;;;;2079230;28;20477;-71